Shenyang, China
Current Conditions -  °F | °C
As of 10:30 AM on Friday 28 Nov 2014 (Local Time) from ZYTX Reporting Station
Clear Clear  
Wind Chill: 30°   Ceiling: Unl
Heat Index: 36°   Visibility: 4mi
Dew Point:   Wind: 7mph
Humidity: 33%   Direction: 360°N
Pressure: 30.09"   Gusts: NA
Location:  41.8°N, 123.45°E
Report Text: ZYTX 280230Z 36003MPS 7000 NSC 02/M13 Q1019 NOSIG
Loading
Personal Weather Stations






























Interactive Weather Map New forecast layout! Learn more

10-Day Weather Forecast

Advertisements
Track Severe Weather on mobile